sensor_id;sensor_type;location;lat;lon;timestamp;P1;durP1;ratioP1;P2;durP2;ratioP2
60318;SDS011;46163;52.306;5.634;2022-12-10T00:01:26;4.25;;;3.20;;
60318;SDS011;46163;52.306;5.634;2022-12-10T00:03:52;5.78;;;3.20;;
60318;SDS011;46163;52.306;5.634;2022-12-10T00:06:21;4.25;;;3.15;;
60318;SDS011;46163;52.306;5.634;2022-12-10T00:08:51;5.03;;;3.22;;
60318;SDS011;46163;52.306;5.634;2022-12-10T00:13:44;4.95;;;3.35;;
60318;SDS011;46163;52.306;5.634;2022-12-10T00:16:12;3.58;;;2.83;;
60318;SDS011;46163;52.306;5.634;2022-12-10T00:18:42;4.68;;;3.10;;
60318;SDS011;46163;52.306;5.634;2022-12-10T00:21:09;3.55;;;2.88;;
60318;SDS011;46163;52.306;5.634;2022-12-10T00:23:37;4.32;;;3.13;;
60318;SDS011;46163;52.306;5.634;2022-12-10T00:26:04;4.90;;;3.22;;
60318;SDS011;46163;52.306;5.634;2022-12-10T00:28:32;5.10;;;3.00;;
60318;SDS011;46163;52.306;5.634;2022-12-10T00:31:09;4.28;;;3.00;;
60318;SDS011;46163;52.306;5.634;2022-12-10T00:33:39;4.13;;;3.08;;
60318;SDS011;46163;52.306;5.634;2022-12-10T00:36:10;4.10;;;3.03;;
60318;SDS011;46163;52.306;5.634;2022-12-10T00:38:38;3.20;;;2.72;;
60318;SDS011;46163;52.306;5.634;2022-12-10T00:41:04;3.67;;;2.85;;
60318;SDS011;46163;52.306;5.634;2022-12-10T00:43:30;4.07;;;3.03;;
60318;SDS011;46163;52.306;5.634;2022-12-10T00:45:57;9.02;;;2.58;;
60318;SDS011;46163;52.306;5.634;2022-12-10T00:51:06;3.40;;;2.60;;
60318;SDS011;46163;52.306;5.634;2022-12-10T00:53:38;3.42;;;3.00;;
60318;SDS011;46163;52.306;5.634;2022-12-10T00:56:05;5.20;;;2.92;;
60318;SDS011;46163;52.306;5.634;2022-12-10T00:58:33;4.07;;;3.10;;
60318;SDS011;46163;52.306;5.634;2022-12-10T01:03:46;3.60;;;3.00;;
60318;SDS011;46163;52.306;5.634;2022-12-10T01:06:26;4.32;;;3.00;;
60318;SDS011;46163;52.306;5.634;2022-12-10T01:08:55;3.78;;;2.80;;
60318;SDS011;46163;52.306;5.634;2022-12-10T01:11:24;3.38;;;2.63;;
60318;SDS011;46163;52.306;5.634;2022-12-10T01:13:51;4.00;;;2.72;;
60318;SDS011;46163;52.306;5.634;2022-12-10T01:16:18;3.45;;;3.10;;
60318;SDS011;46163;52.306;5.634;2022-12-10T01:18:45;4.43;;;3.10;;
60318;SDS011;46163;52.306;5.634;2022-12-10T01:21:11;4.05;;;2.72;;
60318;SDS011;46163;52.306;5.634;2022-12-10T01:23:40;4.22;;;2.97;;
60318;SDS011;46163;52.306;5.634;2022-12-10T01:26:08;3.40;;;3.05;;
60318;SDS011;46163;52.306;5.634;2022-12-10T01:28:36;4.13;;;3.10;;
60318;SDS011;46163;52.306;5.634;2022-12-10T01:31:04;3.08;;;2.67;;
60318;SDS011;46163;52.306;5.634;2022-12-10T01:33:34;3.30;;;2.80;;
60318;SDS011;46163;52.306;5.634;2022-12-10T01:36:03;2.83;;;2.50;;
60318;SDS011;46163;52.306;5.634;2022-12-10T01:38:30;3.35;;;2.67;;
60318;SDS011;46163;52.306;5.634;2022-12-10T01:40:57;2.80;;;2.47;;
60318;SDS011;46163;52.306;5.634;2022-12-10T01:48:18;2.80;;;2.28;;
60318;SDS011;46163;52.306;5.634;2022-12-10T01:50:44;3.75;;;2.60;;
60318;SDS011;46163;52.306;5.634;2022-12-10T01:53:09;3.60;;;2.55;;
60318;SDS011;46163;52.306;5.634;2022-12-10T01:55:47;3.20;;;2.80;;
60318;SDS011;46163;52.306;5.634;2022-12-10T02:01:28;3.58;;;2.60;;
60318;SDS011;46163;52.306;5.634;2022-12-10T02:04:03;4.10;;;2.42;;
60318;SDS011;46163;52.306;5.634;2022-12-10T02:09:24;3.90;;;2.90;;
60318;SDS011;46163;52.306;5.634;2022-12-10T02:15:12;3.22;;;2.70;;
60318;SDS011;46163;52.306;5.634;2022-12-10T02:17:45;3.50;;;2.63;;
60318;SDS011;46163;52.306;5.634;2022-12-10T02:23:54;5.22;;;2.58;;
60318;SDS011;46163;52.306;5.634;2022-12-10T02:26:25;3.28;;;2.63;;
60318;SDS011;46163;52.306;5.634;2022-12-10T02:29:01;3.20;;;2.80;;
60318;SDS011;46163;52.306;5.634;2022-12-10T02:31:36;3.08;;;2.55;;
60318;SDS011;46163;52.306;5.634;2022-12-10T02:34:05;3.67;;;2.63;;
60318;SDS011;46163;52.306;5.634;2022-12-10T02:36:34;3.15;;;2.55;;
60318;SDS011;46163;52.306;5.634;2022-12-10T02:39:02;3.72;;;2.83;;
60318;SDS011;46163;52.306;5.634;2022-12-10T02:41:34;4.00;;;2.78;;
60318;SDS011;46163;52.306;5.634;2022-12-10T02:44:04;4.10;;;2.85;;
60318;SDS011;46163;52.306;5.634;2022-12-10T02:46:32;3.67;;;2.60;;
60318;SDS011;46163;52.306;5.634;2022-12-10T02:49:00;4.15;;;2.97;;
60318;SDS011;46163;52.306;5.634;2022-12-10T02:51:28;2.83;;;2.50;;
60318;SDS011;46163;52.306;5.634;2022-12-10T02:53:58;3.50;;;2.65;;
60318;SDS011;46163;52.306;5.634;2022-12-10T02:59:29;3.90;;;2.85;;
60318;SDS011;46163;52.306;5.634;2022-12-10T03:04:39;3.67;;;2.85;;
60318;SDS011;46163;52.306;5.634;2022-12-10T03:07:10;3.53;;;2.78;;
60318;SDS011;46163;52.306;5.634;2022-12-10T03:09:52;4.13;;;2.90;;
60318;SDS011;46163;52.306;5.634;2022-12-10T03:15:03;3.75;;;2.70;;
60318;SDS011;46163;52.306;5.634;2022-12-10T03:17:33;3.30;;;2.53;;
60318;SDS011;46163;52.306;5.634;2022-12-10T03:20:00;3.17;;;2.72;;
60318;SDS011;46163;52.306;5.634;2022-12-10T03:22:28;3.80;;;2.85;;
60318;SDS011;46163;52.306;5.634;2022-12-10T03:24:54;4.07;;;2.92;;
60318;SDS011;46163;52.306;5.634;2022-12-10T03:27:21;3.17;;;2.60;;
60318;SDS011;46163;52.306;5.634;2022-12-10T03:29:53;2.95;;;2.50;;
60318;SDS011;46163;52.306;5.634;2022-12-10T03:32:21;3.72;;;2.80;;
60318;SDS011;46163;52.306;5.634;2022-12-10T03:34:50;3.45;;;2.78;;
60318;SDS011;46163;52.306;5.634;2022-12-10T03:37:18;4.10;;;2.97;;
60318;SDS011;46163;52.306;5.634;2022-12-10T03:39:44;2.97;;;2.60;;
60318;SDS011;46163;52.306;5.634;2022-12-10T03:42:10;3.20;;;2.80;;
60318;SDS011;46163;52.306;5.634;2022-12-10T03:44:37;3.55;;;2.70;;
60318;SDS011;46163;52.306;5.634;2022-12-10T03:47:05;3.78;;;2.78;;
60318;SDS011;46163;52.306;5.634;2022-12-10T03:49:33;3.35;;;2.67;;
60318;SDS011;46163;52.306;5.634;2022-12-10T03:51:59;2.88;;;2.40;;
60318;SDS011;46163;52.306;5.634;2022-12-10T03:54:24;3.00;;;2.53;;
60318;SDS011;46163;52.306;5.634;2022-12-10T03:56:49;4.68;;;2.90;;
60318;SDS011;46163;52.306;5.634;2022-12-10T03:59:15;3.33;;;2.65;;
60318;SDS011;46163;52.306;5.634;2022-12-10T04:01:40;3.08;;;2.47;;
60318;SDS011;46163;52.306;5.634;2022-12-10T04:04:07;2.70;;;2.15;;
60318;SDS011;46163;52.306;5.634;2022-12-10T04:06:33;2.70;;;2.30;;
60318;SDS011;46163;52.306;5.634;2022-12-10T04:08:59;3.13;;;2.25;;
60318;SDS011;46163;52.306;5.634;2022-12-10T04:11:24;3.35;;;2.30;;
60318;SDS011;46163;52.306;5.634;2022-12-10T04:13:50;2.38;;;2.10;;
60318;SDS011;46163;52.306;5.634;2022-12-10T04:16:35;2.22;;;2.03;;
60318;SDS011;46163;52.306;5.634;2022-12-10T04:19:05;2.83;;;2.10;;
60318;SDS011;46163;52.306;5.634;2022-12-10T04:21:39;2.63;;;2.22;;
60318;SDS011;46163;52.306;5.634;2022-12-10T04:24:25;2.55;;;2.05;;
60318;SDS011;46163;52.306;5.634;2022-12-10T04:27:12;2.80;;;2.17;;
60318;SDS011;46163;52.306;5.634;2022-12-10T04:29:41;2.10;;;1.90;;
60318;SDS011;46163;52.306;5.634;2022-12-10T04:32:06;2.28;;;2.03;;
60318;SDS011;46163;52.306;5.634;2022-12-10T04:34:32;2.40;;;2.10;;
60318;SDS011;46163;52.306;5.634;2022-12-10T04:36:58;2.50;;;2.30;;
60318;SDS011;46163;52.306;5.634;2022-12-10T04:39:24;2.63;;;2.30;;
60318;SDS011;46163;52.306;5.634;2022-12-10T04:41:50;2.30;;;2.00;;
60318;SDS011;46163;52.306;5.634;2022-12-10T04:44:16;2.30;;;2.00;;
60318;SDS011;46163;52.306;5.634;2022-12-10T04:46:42;2.53;;;2.00;;
60318;SDS011;46163;52.306;5.634;2022-12-10T04:49:08;2.30;;;2.10;;
60318;SDS011;46163;52.306;5.634;2022-12-10T04:51:34;2.03;;;1.83;;
60318;SDS011;46163;52.306;5.634;2022-12-10T04:53:59;2.08;;;1.88;;
60318;SDS011;46163;52.306;5.634;2022-12-10T04:56:25;2.13;;;1.92;;
60318;SDS011;46163;52.306;5.634;2022-12-10T04:58:51;2.00;;;1.77;;
60318;SDS011;46163;52.306;5.634;2022-12-10T05:01:18;2.40;;;2.15;;
60318;SDS011;46163;52.306;5.634;2022-12-10T05:03:46;1.95;;;1.85;;
60318;SDS011;46163;52.306;5.634;2022-12-10T05:06:13;2.08;;;1.85;;
60318;SDS011;46163;52.306;5.634;2022-12-10T05:08:41;2.42;;;2.10;;
60318;SDS011;46163;52.306;5.634;2022-12-10T05:11:11;2.33;;;2.13;;
60318;SDS011;46163;52.306;5.634;2022-12-10T05:13:42;1.75;;;1.63;;
60318;SDS011;46163;52.306;5.634;2022-12-10T05:16:09;2.33;;;2.13;;
60318;SDS011;46163;52.306;5.634;2022-12-10T05:18:36;2.50;;;2.08;;
60318;SDS011;46163;52.306;5.634;2022-12-10T05:21:04;1.98;;;1.80;;
60318;SDS011;46163;52.306;5.634;2022-12-10T05:23:31;2.00;;;1.80;;
60318;SDS011;46163;52.306;5.634;2022-12-10T05:28:32;2.20;;;2.00;;
60318;SDS011;46163;52.306;5.634;2022-12-10T05:30:59;2.13;;;1.90;;
60318;SDS011;46163;52.306;5.634;2022-12-10T05:33:26;2.22;;;2.03;;
60318;SDS011;46163;52.306;5.634;2022-12-10T05:35:56;2.08;;;1.90;;
60318;SDS011;46163;52.306;5.634;2022-12-10T05:38:22;2.08;;;1.83;;
60318;SDS011;46163;52.306;5.634;2022-12-10T05:40:48;2.17;;;1.95;;
60318;SDS011;46163;52.306;5.634;2022-12-10T05:43:15;2.15;;;1.95;;
60318;SDS011;46163;52.306;5.634;2022-12-10T05:45:41;1.88;;;1.77;;
60318;SDS011;46163;52.306;5.634;2022-12-10T05:48:07;1.88;;;1.77;;
60318;SDS011;46163;52.306;5.634;2022-12-10T05:50:35;2.10;;;1.90;;
60318;SDS011;46163;52.306;5.634;2022-12-10T05:53:00;2.22;;;1.98;;
60318;SDS011;46163;52.306;5.634;2022-12-10T05:55:26;2.10;;;1.90;;
60318;SDS011;46163;52.306;5.634;2022-12-10T05:57:52;2.33;;;1.90;;
60318;SDS011;46163;52.306;5.634;2022-12-10T06:00:18;1.92;;;1.83;;
60318;SDS011;46163;52.306;5.634;2022-12-10T06:02:43;2.10;;;1.90;;
60318;SDS011;46163;52.306;5.634;2022-12-10T06:05:09;2.22;;;1.90;;
60318;SDS011;46163;52.306;5.634;2022-12-10T06:07:34;2.10;;;1.90;;
60318;SDS011;46163;52.306;5.634;2022-12-10T06:10:00;2.17;;;1.88;;
60318;SDS011;46163;52.306;5.634;2022-12-10T06:12:26;1.88;;;1.75;;
60318;SDS011;46163;52.306;5.634;2022-12-10T06:14:51;1.90;;;1.80;;
60318;SDS011;46163;52.306;5.634;2022-12-10T06:17:17;2.53;;;2.00;;
60318;SDS011;46163;52.306;5.634;2022-12-10T06:19:42;2.05;;;1.85;;
60318;SDS011;46163;52.306;5.634;2022-12-10T06:22:08;2.38;;;2.00;;
60318;SDS011;46163;52.306;5.634;2022-12-10T06:24:33;1.90;;;1.75;;
60318;SDS011;46163;52.306;5.634;2022-12-10T06:26:58;2.05;;;1.80;;
60318;SDS011;46163;52.306;5.634;2022-12-10T06:29:24;2.20;;;2.00;;
60318;SDS011;46163;52.306;5.634;2022-12-10T06:31:49;1.98;;;1.83;;
60318;SDS011;46163;52.306;5.634;2022-12-10T06:34:15;2.10;;;1.90;;
60318;SDS011;46163;52.306;5.634;2022-12-10T06:36:40;2.35;;;2.03;;
60318;SDS011;46163;52.306;5.634;2022-12-10T06:39:06;2.42;;;2.00;;
60318;SDS011;46163;52.306;5.634;2022-12-10T06:41:31;2.30;;;2.10;;
60318;SDS011;46163;52.306;5.634;2022-12-10T06:43:58;2.47;;;2.05;;
60318;SDS011;46163;52.306;5.634;2022-12-10T06:46:24;2.25;;;1.95;;
60318;SDS011;46163;52.306;5.634;2022-12-10T06:48:50;2.15;;;1.80;;
60318;SDS011;46163;52.306;5.634;2022-12-10T06:51:16;1.95;;;1.80;;
60318;SDS011;46163;52.306;5.634;2022-12-10T06:53:44;2.22;;;2.03;;
60318;SDS011;46163;52.306;5.634;2022-12-10T06:56:12;2.15;;;1.95;;
60318;SDS011;46163;52.306;5.634;2022-12-10T06:58:39;2.00;;;1.80;;
60318;SDS011;46163;52.306;5.634;2022-12-10T07:01:11;2.10;;;1.90;;
60318;SDS011;46163;52.306;5.634;2022-12-10T07:03:38;1.92;;;1.83;;
60318;SDS011;46163;52.306;5.634;2022-12-10T07:06:05;2.63;;;1.98;;
60318;SDS011;46163;52.306;5.634;2022-12-10T07:08:33;2.05;;;1.90;;
60318;SDS011;46163;52.306;5.634;2022-12-10T07:10:58;2.40;;;1.90;;
60318;SDS011;46163;52.306;5.634;2022-12-10T07:13:24;2.15;;;1.85;;
60318;SDS011;46163;52.306;5.634;2022-12-10T07:15:50;2.40;;;2.20;;
60318;SDS011;46163;52.306;5.634;2022-12-10T07:18:16;2.30;;;2.10;;
60318;SDS011;46163;52.306;5.634;2022-12-10T07:20:41;1.83;;;1.73;;
60318;SDS011;46163;52.306;5.634;2022-12-10T07:23:07;1.90;;;1.80;;
60318;SDS011;46163;52.306;5.634;2022-12-10T07:25:33;1.90;;;1.77;;
60318;SDS011;46163;52.306;5.634;2022-12-10T07:27:58;2.85;;;2.40;;
60318;SDS011;46163;52.306;5.634;2022-12-10T07:30:24;2.17;;;1.98;;
60318;SDS011;46163;52.306;5.634;2022-12-10T07:32:50;2.38;;;2.17;;
60318;SDS011;46163;52.306;5.634;2022-12-10T07:35:16;2.13;;;1.90;;
60318;SDS011;46163;52.306;5.634;2022-12-10T07:37:42;2.13;;;1.92;;
60318;SDS011;46163;52.306;5.634;2022-12-10T07:40:08;3.75;;;2.40;;
60318;SDS011;46163;52.306;5.634;2022-12-10T07:42:34;2.63;;;1.90;;
60318;SDS011;46163;52.306;5.634;2022-12-10T07:45:00;2.28;;;2.08;;
60318;SDS011;46163;52.306;5.634;2022-12-10T07:47:25;2.00;;;1.90;;
60318;SDS011;46163;52.306;5.634;2022-12-10T07:49:51;2.92;;;2.00;;
60318;SDS011;46163;52.306;5.634;2022-12-10T07:52:17;2.60;;;2.03;;
60318;SDS011;46163;52.306;5.634;2022-12-10T07:54:43;2.20;;;2.00;;
60318;SDS011;46163;52.306;5.634;2022-12-10T07:57:09;2.22;;;2.00;;
60318;SDS011;46163;52.306;5.634;2022-12-10T07:59:35;2.55;;;2.10;;
60318;SDS011;46163;52.306;5.634;2022-12-10T08:02:00;3.10;;;2.33;;
60318;SDS011;46163;52.306;5.634;2022-12-10T08:04:28;2.92;;;2.10;;
60318;SDS011;46163;52.306;5.634;2022-12-10T08:06:55;2.88;;;2.33;;
60318;SDS011;46163;52.306;5.634;2022-12-10T08:09:21;2.60;;;2.20;;
60318;SDS011;46163;52.306;5.634;2022-12-10T08:11:46;2.10;;;1.90;;
60318;SDS011;46163;52.306;5.634;2022-12-10T08:14:12;2.30;;;2.10;;
60318;SDS011;46163;52.306;5.634;2022-12-10T08:16:37;2.20;;;2.00;;
60318;SDS011;46163;52.306;5.634;2022-12-10T08:19:03;2.42;;;2.05;;
60318;SDS011;46163;52.306;5.634;2022-12-10T08:21:29;2.20;;;2.03;;
60318;SDS011;46163;52.306;5.634;2022-12-10T08:23:58;2.25;;;2.05;;
60318;SDS011;46163;52.306;5.634;2022-12-10T08:26:27;2.35;;;2.15;;
60318;SDS011;46163;52.306;5.634;2022-12-10T08:28:55;2.42;;;2.13;;
60318;SDS011;46163;52.306;5.634;2022-12-10T08:31:22;2.20;;;2.00;;
60318;SDS011;46163;52.306;5.634;2022-12-10T08:33:50;2.88;;;2.22;;
60318;SDS011;46163;52.306;5.634;2022-12-10T08:36:16;3.30;;;2.80;;
60318;SDS011;46163;52.306;5.634;2022-12-10T08:38:43;3.47;;;2.40;;
60318;SDS011;46163;52.306;5.634;2022-12-10T08:41:10;2.67;;;2.33;;
60318;SDS011;46163;52.306;5.634;2022-12-10T08:43:37;2.85;;;2.33;;
60318;SDS011;46163;52.306;5.634;2022-12-10T08:46:02;2.75;;;2.38;;
60318;SDS011;46163;52.306;5.634;2022-12-10T08:48:28;3.45;;;2.70;;
60318;SDS011;46163;52.306;5.634;2022-12-10T08:50:57;2.65;;;2.22;;
60318;SDS011;46163;52.306;5.634;2022-12-10T08:53:23;3.15;;;2.55;;
60318;SDS011;46163;52.306;5.634;2022-12-10T08:55:49;3.58;;;2.85;;
60318;SDS011;46163;52.306;5.634;2022-12-10T08:58:15;2.97;;;2.60;;
60318;SDS011;46163;52.306;5.634;2022-12-10T09:00:41;2.78;;;2.47;;
60318;SDS011;46163;52.306;5.634;2022-12-10T09:03:08;3.50;;;2.67;;
60318;SDS011;46163;52.306;5.634;2022-12-10T09:05:36;4.45;;;2.95;;
60318;SDS011;46163;52.306;5.634;2022-12-10T09:08:02;3.70;;;2.80;;
60318;SDS011;46163;52.306;5.634;2022-12-10T09:10:28;3.85;;;2.97;;
60318;SDS011;46163;52.306;5.634;2022-12-10T09:12:54;4.25;;;2.92;;
60318;SDS011;46163;52.306;5.634;2022-12-10T09:15:19;4.10;;;2.97;;
60318;SDS011;46163;52.306;5.634;2022-12-10T09:17:45;4.80;;;3.17;;
60318;SDS011;46163;52.306;5.634;2022-12-10T09:20:10;5.78;;;3.10;;
60318;SDS011;46163;52.306;5.634;2022-12-10T09:22:36;3.47;;;2.83;;
60318;SDS011;46163;52.306;5.634;2022-12-10T09:25:03;4.25;;;2.97;;
60318;SDS011;46163;52.306;5.634;2022-12-10T09:27:30;3.75;;;2.97;;
60318;SDS011;46163;52.306;5.634;2022-12-10T09:29:56;4.55;;;2.88;;
60318;SDS011;46163;52.306;5.634;2022-12-10T09:32:24;4.28;;;3.05;;
60318;SDS011;46163;52.306;5.634;2022-12-10T09:34:52;3.83;;;2.88;;
60318;SDS011;46163;52.306;5.634;2022-12-10T09:37:18;3.70;;;2.80;;
60318;SDS011;46163;52.306;5.634;2022-12-10T09:39:45;3.90;;;2.40;;
60318;SDS011;46163;52.306;5.634;2022-12-10T09:42:47;4.93;;;2.60;;
60318;SDS011;46163;52.306;5.634;2022-12-10T09:50:59;4.47;;;2.90;;
60318;SDS011;46163;52.306;5.634;2022-12-10T09:53:44;5.18;;;2.95;;
60318;SDS011;46163;52.306;5.634;2022-12-10T09:56:21;4.40;;;2.90;;
60318;SDS011;46163;52.306;5.634;2022-12-10T09:58:50;3.75;;;2.65;;
60318;SDS011;46163;52.306;5.634;2022-12-10T10:01:18;3.92;;;2.67;;
60318;SDS011;46163;52.306;5.634;2022-12-10T10:03:48;3.30;;;2.70;;
60318;SDS011;46163;52.306;5.634;2022-12-10T10:06:13;3.50;;;2.88;;
60318;SDS011;46163;52.306;5.634;2022-12-10T10:08:41;4.05;;;2.70;;
60318;SDS011;46163;52.306;5.634;2022-12-10T10:11:20;3.65;;;2.72;;
60318;SDS011;46163;52.306;5.634;2022-12-10T10:13:51;4.10;;;3.00;;
60318;SDS011;46163;52.306;5.634;2022-12-10T10:21:54;4.47;;;3.05;;
60318;SDS011;46163;52.306;5.634;2022-12-10T10:24:18;3.88;;;2.90;;
60318;SDS011;46163;52.306;5.634;2022-12-10T10:26:46;5.00;;;2.90;;
60318;SDS011;46163;52.306;5.634;2022-12-10T10:29:14;3.08;;;2.42;;
60318;SDS011;46163;52.306;5.634;2022-12-10T10:31:43;4.90;;;3.03;;
60318;SDS011;46163;52.306;5.634;2022-12-10T10:36:43;4.30;;;2.90;;
60318;SDS011;46163;52.306;5.634;2022-12-10T10:39:10;3.20;;;2.50;;
60318;SDS011;46163;52.306;5.634;2022-12-10T10:41:45;6.63;;;2.60;;
60318;SDS011;46163;52.306;5.634;2022-12-10T10:44:19;3.75;;;2.90;;
60318;SDS011;46163;52.306;5.634;2022-12-10T10:46:48;5.40;;;2.63;;
60318;SDS011;46163;52.306;5.634;2022-12-10T10:51:47;3.47;;;2.58;;
60318;SDS011;46163;52.306;5.634;2022-12-10T10:54:30;4.35;;;2.75;;
60318;SDS011;46163;52.306;5.634;2022-12-10T10:57:03;3.47;;;2.53;;
60318;SDS011;46163;52.306;5.634;2022-12-10T10:59:54;3.65;;;2.60;;
60318;SDS011;46163;52.306;5.634;2022-12-10T11:02:35;3.53;;;2.53;;
60318;SDS011;46163;52.306;5.634;2022-12-10T11:07:42;4.10;;;3.03;;
60318;SDS011;46163;52.306;5.634;2022-12-10T11:12:42;3.38;;;2.42;;
60318;SDS011;46163;52.306;5.634;2022-12-10T11:17:50;3.85;;;2.83;;
60318;SDS011;46163;52.306;5.634;2022-12-10T11:20:22;6.60;;;2.83;;
60318;SDS011;46163;52.306;5.634;2022-12-10T11:25:23;4.00;;;2.72;;
60318;SDS011;46163;52.306;5.634;2022-12-10T11:28:20;3.90;;;2.92;;
60318;SDS011;46163;52.306;5.634;2022-12-10T11:36:29;4.32;;;2.67;;
60318;SDS011;46163;52.306;5.634;2022-12-10T11:39:24;3.10;;;2.47;;
60318;SDS011;46163;52.306;5.634;2022-12-10T11:42:23;3.70;;;2.65;;
60318;SDS011;46163;52.306;5.634;2022-12-10T11:45:44;3.22;;;2.65;;
60318;SDS011;46163;52.306;5.634;2022-12-10T11:51:07;3.15;;;2.50;;
60318;SDS011;46163;52.306;5.634;2022-12-10T11:53:44;4.25;;;2.70;;
60318;SDS011;46163;52.306;5.634;2022-12-10T12:01:52;3.28;;;2.47;;
60318;SDS011;46163;52.306;5.634;2022-12-10T12:12:40;4.15;;;2.85;;
60318;SDS011;46163;52.306;5.634;2022-12-10T12:15:17;3.60;;;2.70;;
60318;SDS011;46163;52.306;5.634;2022-12-10T12:17:53;3.80;;;2.65;;
60318;SDS011;46163;52.306;5.634;2022-12-10T12:26:08;4.03;;;2.50;;
60318;SDS011;46163;52.306;5.634;2022-12-10T12:28:41;3.78;;;2.45;;
60318;SDS011;46163;52.306;5.634;2022-12-10T12:31:24;3.40;;;2.40;;
60318;SDS011;46163;52.306;5.634;2022-12-10T12:33:59;3.63;;;2.53;;
60318;SDS011;46163;52.306;5.634;2022-12-10T12:36:29;3.35;;;2.50;;
60318;SDS011;46163;52.306;5.634;2022-12-10T12:39:04;4.97;;;3.08;;
60318;SDS011;46163;52.306;5.634;2022-12-10T12:44:29;4.65;;;3.17;;
60318;SDS011;46163;52.306;5.634;2022-12-10T12:50:11;4.25;;;3.03;;
60318;SDS011;46163;52.306;5.634;2022-12-10T12:52:57;3.83;;;2.90;;
60318;SDS011;46163;52.306;5.634;2022-12-10T12:55:34;3.97;;;2.85;;
60318;SDS011;46163;52.306;5.634;2022-12-10T13:01:31;3.40;;;2.50;;
60318;SDS011;46163;52.306;5.634;2022-12-10T13:04:12;3.55;;;2.58;;
60318;SDS011;46163;52.306;5.634;2022-12-10T13:06:39;3.20;;;2.45;;
60318;SDS011;46163;52.306;5.634;2022-12-10T13:11:40;4.13;;;2.72;;
60318;SDS011;46163;52.306;5.634;2022-12-10T13:30:00;2.75;;;2.33;;
60318;SDS011;46163;52.306;5.634;2022-12-10T13:42:59;3.95;;;2.78;;
60318;SDS011;46163;52.306;5.634;2022-12-10T13:48:54;3.42;;;2.53;;
60318;SDS011;46163;52.306;5.634;2022-12-10T13:51:24;3.20;;;2.50;;
60318;SDS011;46163;52.306;5.634;2022-12-10T14:02:37;2.95;;;2.42;;
60318;SDS011;46163;52.306;5.634;2022-12-10T14:08:29;2.90;;;2.30;;
60318;SDS011;46163;52.306;5.634;2022-12-10T14:10:58;2.40;;;2.00;;
60318;SDS011;46163;52.306;5.634;2022-12-10T14:13:32;3.08;;;2.50;;
60318;SDS011;46163;52.306;5.634;2022-12-10T14:16:03;2.88;;;2.38;;
60318;SDS011;46163;52.306;5.634;2022-12-10T14:18:31;3.03;;;2.50;;
60318;SDS011;46163;52.306;5.634;2022-12-10T14:20:57;2.90;;;2.45;;
60318;SDS011;46163;52.306;5.634;2022-12-10T14:23:28;2.92;;;2.45;;
60318;SDS011;46163;52.306;5.634;2022-12-10T14:26:15;2.22;;;2.03;;
60318;SDS011;46163;52.306;5.634;2022-12-10T14:28:56;2.47;;;2.13;;
60318;SDS011;46163;52.306;5.634;2022-12-10T14:31:34;2.72;;;2.33;;
60318;SDS011;46163;52.306;5.634;2022-12-10T14:34:06;3.10;;;2.20;;
60318;SDS011;46163;52.306;5.634;2022-12-10T14:36:34;2.53;;;2.10;;
60318;SDS011;46163;52.306;5.634;2022-12-10T14:39:12;2.97;;;2.50;;
60318;SDS011;46163;52.306;5.634;2022-12-10T14:41:41;2.47;;;2.20;;
60318;SDS011;46163;52.306;5.634;2022-12-10T14:44:09;2.60;;;2.40;;
60318;SDS011;46163;52.306;5.634;2022-12-10T14:46:39;2.28;;;2.08;;
60318;SDS011;46163;52.306;5.634;2022-12-10T14:49:06;2.60;;;2.10;;
60318;SDS011;46163;52.306;5.634;2022-12-10T14:51:38;2.65;;;2.22;;
60318;SDS011;46163;52.306;5.634;2022-12-10T14:54:12;2.30;;;2.08;;
60318;SDS011;46163;52.306;5.634;2022-12-10T14:56:54;2.40;;;2.20;;
60318;SDS011;46163;52.306;5.634;2022-12-10T14:59:24;2.80;;;2.25;;
60318;SDS011;46163;52.306;5.634;2022-12-10T15:01:58;2.22;;;2.03;;
60318;SDS011;46163;52.306;5.634;2022-12-10T15:04:31;2.38;;;2.13;;
60318;SDS011;46163;52.306;5.634;2022-12-10T15:07:16;2.40;;;2.10;;
60318;SDS011;46163;52.306;5.634;2022-12-10T15:09:45;2.40;;;2.17;;
60318;SDS011;46163;52.306;5.634;2022-12-10T15:14:51;2.28;;;2.03;;
60318;SDS011;46163;52.306;5.634;2022-12-10T15:17:33;2.20;;;2.00;;
60318;SDS011;46163;52.306;5.634;2022-12-10T15:20:02;2.10;;;1.90;;
60318;SDS011;46163;52.306;5.634;2022-12-10T15:22:34;2.55;;;2.22;;
60318;SDS011;46163;52.306;5.634;2022-12-10T15:25:09;2.30;;;2.03;;
60318;SDS011;46163;52.306;5.634;2022-12-10T15:27:51;2.20;;;2.00;;
60318;SDS011;46163;52.306;5.634;2022-12-10T15:30:22;2.80;;;2.33;;
60318;SDS011;46163;52.306;5.634;2022-12-10T15:33:26;2.30;;;2.08;;
60318;SDS011;46163;52.306;5.634;2022-12-10T15:35:59;3.30;;;2.28;;
60318;SDS011;46163;52.306;5.634;2022-12-10T15:38:25;2.67;;;2.10;;
60318;SDS011;46163;52.306;5.634;2022-12-10T15:40:56;2.63;;;2.08;;
60318;SDS011;46163;52.306;5.634;2022-12-10T15:43:28;2.28;;;2.08;;
60318;SDS011;46163;52.306;5.634;2022-12-10T15:45:55;2.83;;;2.45;;
60318;SDS011;46163;52.306;5.634;2022-12-10T15:48:22;2.97;;;2.60;;
60318;SDS011;46163;52.306;5.634;2022-12-10T15:50:50;2.80;;;2.25;;
60318;SDS011;46163;52.306;5.634;2022-12-10T15:53:21;3.05;;;2.53;;
60318;SDS011;46163;52.306;5.634;2022-12-10T15:55:54;3.03;;;2.35;;
60318;SDS011;46163;52.306;5.634;2022-12-10T15:58:19;2.42;;;2.22;;
60318;SDS011;46163;52.306;5.634;2022-12-10T16:00:45;4.90;;;3.67;;
60318;SDS011;46163;52.306;5.634;2022-12-10T16:03:15;3.50;;;2.60;;
60318;SDS011;46163;52.306;5.634;2022-12-10T16:05:43;4.97;;;2.88;;
60318;SDS011;46163;52.306;5.634;2022-12-10T16:13:10;4.00;;;2.45;;
60318;SDS011;46163;52.306;5.634;2022-12-10T16:15:44;8.50;;;2.70;;
60318;SDS011;46163;52.306;5.634;2022-12-10T16:18:22;3.33;;;2.42;;
60318;SDS011;46163;52.306;5.634;2022-12-10T16:20:49;4.68;;;2.63;;
60318;SDS011;46163;52.306;5.634;2022-12-10T16:23:14;5.95;;;2.80;;
60318;SDS011;46163;52.306;5.634;2022-12-10T16:25:41;4.07;;;2.80;;
60318;SDS011;46163;52.306;5.634;2022-12-10T16:28:16;4.60;;;3.22;;
60318;SDS011;46163;52.306;5.634;2022-12-10T16:30:50;5.07;;;3.38;;
60318;SDS011;46163;52.306;5.634;2022-12-10T16:33:21;5.05;;;3.22;;
60318;SDS011;46163;52.306;5.634;2022-12-10T16:35:49;4.18;;;3.20;;
60318;SDS011;46163;52.306;5.634;2022-12-10T16:40:42;4.82;;;3.40;;
60318;SDS011;46163;52.306;5.634;2022-12-10T16:43:13;4.50;;;3.00;;
60318;SDS011;46163;52.306;5.634;2022-12-10T16:45:41;4.78;;;3.28;;
60318;SDS011;46163;52.306;5.634;2022-12-10T16:48:08;5.20;;;2.90;;
60318;SDS011;46163;52.306;5.634;2022-12-10T16:50:35;3.92;;;3.00;;
60318;SDS011;46163;52.306;5.634;2022-12-10T16:53:06;3.42;;;2.85;;
60318;SDS011;46163;52.306;5.634;2022-12-10T16:55:42;3.35;;;2.60;;
60318;SDS011;46163;52.306;5.634;2022-12-10T16:58:11;4.18;;;2.90;;
60318;SDS011;46163;52.306;5.634;2022-12-10T17:00:40;4.13;;;2.67;;
60318;SDS011;46163;52.306;5.634;2022-12-10T17:03:14;6.38;;;2.80;;
60318;SDS011;46163;52.306;5.634;2022-12-10T17:05:47;3.83;;;3.00;;
60318;SDS011;46163;52.306;5.634;2022-12-10T17:08:18;4.68;;;3.03;;
60318;SDS011;46163;52.306;5.634;2022-12-10T17:10:44;3.42;;;2.80;;
60318;SDS011;46163;52.306;5.634;2022-12-10T17:13:29;4.93;;;3.00;;
60318;SDS011;46163;52.306;5.634;2022-12-10T17:15:56;4.32;;;3.10;;
60318;SDS011;46163;52.306;5.634;2022-12-10T17:18:23;3.63;;;2.63;;
60318;SDS011;46163;52.306;5.634;2022-12-10T17:20:49;4.57;;;2.80;;
60318;SDS011;46163;52.306;5.634;2022-12-10T17:23:15;3.55;;;2.80;;
60318;SDS011;46163;52.306;5.634;2022-12-10T17:25:41;3.60;;;2.70;;
60318;SDS011;46163;52.306;5.634;2022-12-10T17:28:12;3.15;;;2.58;;
60318;SDS011;46163;52.306;5.634;2022-12-10T17:30:39;3.78;;;2.88;;
60318;SDS011;46163;52.306;5.634;2022-12-10T17:33:05;4.50;;;2.78;;
60318;SDS011;46163;52.306;5.634;2022-12-10T17:35:31;3.08;;;2.60;;
60318;SDS011;46163;52.306;5.634;2022-12-10T17:37:57;3.25;;;2.55;;